createdAt,value
2018-02-03T00:01:39.623Z,92.30
2018-02-03T00:04:07.198Z,92.30
2018-02-03T00:06:34.825Z,91.70
2018-02-03T00:09:03.148Z,92.20
2018-02-03T00:11:31.528Z,91.90
2018-02-03T00:13:59.116Z,91.90
2018-02-03T00:16:26.713Z,91.70
2018-02-03T00:18:54.292Z,91.80
2018-02-03T00:21:21.865Z,91.80
2018-02-03T00:23:49.510Z,92.10
2018-02-03T00:26:17.089Z,92.20
2018-02-03T00:28:44.693Z,92.30
2018-02-03T00:31:13.059Z,92.30
2018-02-03T00:33:41.452Z,92.30
2018-02-03T00:36:09.804Z,92.20
2018-02-03T00:38:37.413Z,92.20
2018-02-03T00:41:04.996Z,92.20
2018-02-03T00:43:32.617Z,92.30
2018-02-03T00:46:00.969Z,92.20
2018-02-03T00:48:28.561Z,92.20
2018-02-03T00:50:56.145Z,92.20
2018-02-03T00:53:23.746Z,92.20
2018-02-03T00:55:51.362Z,91.90
2018-02-03T00:58:18.978Z,92.00
2018-02-03T01:00:46.569Z,92.00
2018-02-03T01:03:14.158Z,91.80
2018-02-03T01:05:41.736Z,91.80
2018-02-03T01:08:09.341Z,92.00
2018-02-03T01:10:36.936Z,91.70
2018-02-03T01:13:05.357Z,91.80
2018-02-03T01:15:32.937Z,91.80
2018-02-03T01:18:00.532Z,92.20
2018-02-03T01:20:28.185Z,92.20
2018-02-03T01:22:55.799Z,92.20
2018-02-03T01:25:23.408Z,92.40
2018-02-03T01:27:51.021Z,92.50
2018-02-03T01:30:18.585Z,92.50
2018-02-03T01:32:46.959Z,92.80
2018-02-03T01:35:14.526Z,92.50
2018-02-03T01:37:42.941Z,92.50
2018-02-03T01:40:10.556Z,92.40
2018-02-03T01:42:38.152Z,92.30
2018-02-03T01:45:05.746Z,92.30
2018-02-03T01:47:45.172Z,92.50
2018-02-03T01:50:12.820Z,92.50
2018-02-03T01:52:40.449Z,92.30
2018-02-03T01:55:08.792Z,92.40
2018-02-03T01:57:36.461Z,92.40
2018-02-03T02:00:04.064Z,92.50
2018-02-03T02:02:31.664Z,92.40
2018-02-03T02:04:59.265Z,92.20
2018-02-03T02:07:27.672Z,92.50
2018-02-03T02:09:55.260Z,92.50
2018-02-03T02:12:22.841Z,92.50
2018-02-03T02:14:50.438Z,92.40
2018-02-03T02:17:18.013Z,92.80
2018-02-03T02:19:45.612Z,92.40
2018-02-03T02:22:13.217Z,92.40
2018-02-03T02:24:41.573Z,92.40
2018-02-03T02:27:09.137Z,92.40
2018-02-03T02:29:36.709Z,92.30
2018-02-03T02:32:05.054Z,92.20
2018-02-03T02:34:32.677Z,92.10
2018-02-03T02:37:00.284Z,91.90
2018-02-03T02:39:28.135Z,92.30
2018-02-03T02:41:55.765Z,92.10
2018-02-03T02:44:23.366Z,92.30
2018-02-03T02:46:50.941Z,92.20
2018-02-03T02:49:18.547Z,92.20
2018-02-03T02:51:46.187Z,92.40
2018-02-03T02:54:13.812Z,92.60
2018-02-03T02:56:41.408Z,92.00
2018-02-03T02:59:09.029Z,92.00
2018-02-03T03:01:36.615Z,91.90
2018-02-03T03:04:04.961Z,91.90
2018-02-03T03:06:32.564Z,91.90
2018-02-03T03:09:00.186Z,92.20
2018-02-03T03:11:27.768Z,92.20
2018-02-03T03:13:56.141Z,92.20
2018-02-03T03:16:24.508Z,92.60
2018-02-03T03:18:52.341Z,92.60
2018-02-03T03:21:19.943Z,92.60
2018-02-03T03:23:48.308Z,92.70
2018-02-03T03:26:15.957Z,92.70
2018-02-03T03:28:43.545Z,92.40
2018-02-03T03:31:11.932Z,92.50
2018-02-03T03:33:40.362Z,92.90
2018-02-03T03:36:07.963Z,92.90
2018-02-03T03:38:36.351Z,92.70
2018-02-03T03:41:04.730Z,92.30
2018-02-03T03:43:33.092Z,92.50
2018-02-03T03:46:00.681Z,92.50
2018-02-03T03:48:29.044Z,92.50
2018-02-03T03:50:57.485Z,92.60
2018-02-03T03:53:25.089Z,92.90
2018-02-03T03:55:53.456Z,92.60
2018-02-03T03:58:21.024Z,92.80
2018-02-03T04:00:49.381Z,92.50
2018-02-03T04:03:16.961Z,92.40
2018-02-03T04:05:45.338Z,92.40
2018-02-03T04:08:13.686Z,92.60
2018-02-03T04:10:41.280Z,92.50
2018-02-03T04:13:09.624Z,92.70
2018-02-03T04:15:37.233Z,92.70
2018-02-03T04:18:04.836Z,92.60
2018-02-03T04:20:32.536Z,92.20
2018-02-03T04:23:00.903Z,92.10
2018-02-03T04:25:28.920Z,92.10
2018-02-03T04:27:56.524Z,92.40
2018-02-03T04:30:24.096Z,92.70
2018-02-03T04:32:51.804Z,92.60
2018-02-03T04:35:19.381Z,92.60
2018-02-03T04:37:46.970Z,92.10
2018-02-03T04:40:14.617Z,92.20
2018-02-03T04:42:42.200Z,92.40
2018-02-03T04:45:09.853Z,92.20
2018-02-03T04:47:37.455Z,92.50
2018-02-03T04:50:05.057Z,92.60
2018-02-03T04:52:32.664Z,92.20
2018-02-03T04:55:01.086Z,92.10
2018-02-03T04:57:28.661Z,92.00
2018-02-03T04:59:56.236Z,92.20
2018-02-03T05:02:23.976Z,92.00
2018-02-03T05:04:51.553Z,91.90
2018-02-03T05:07:19.152Z,91.70
2018-02-03T05:09:46.803Z,92.30
2018-02-03T05:12:15.137Z,92.50
2018-02-03T05:14:42.735Z,92.50
2018-02-03T05:19:37.129Z,91.90
2018-02-03T05:22:05.481Z,92.20
2018-02-03T05:24:33.077Z,92.10
2018-02-03T05:27:00.663Z,92.40
2018-02-03T05:29:28.272Z,91.90
2018-02-03T05:31:55.902Z,92.40
2018-02-03T05:34:23.486Z,92.30
2018-02-03T05:36:51.518Z,92.50
2018-02-03T05:39:19.109Z,92.70
2018-02-03T05:41:46.717Z,92.30
2018-02-03T05:44:14.345Z,92.30
2018-02-03T05:46:41.944Z,92.20
2018-02-03T05:49:09.520Z,92.50
2018-02-03T05:51:37.099Z,92.50
2018-02-03T05:54:04.698Z,92.40
2018-02-03T05:56:33.053Z,91.70
2018-02-03T05:59:00.670Z,91.70
2018-02-03T06:01:28.250Z,91.80
2018-02-03T06:03:55.868Z,91.70
2018-02-03T06:06:24.200Z,91.90
2018-02-03T06:08:51.804Z,91.80
2018-02-03T06:11:20.157Z,92.00
2018-02-03T06:13:47.741Z,92.00
2018-02-03T06:16:16.116Z,92.00
2018-02-03T06:18:44.558Z,92.10
2018-02-03T06:21:12.237Z,92.00
2018-02-03T06:23:39.813Z,92.10
2018-02-03T06:26:07.423Z,91.90
2018-02-03T06:28:35.065Z,92.00
2018-02-03T06:31:02.663Z,92.30
2018-02-03T06:33:30.261Z,91.90
2018-02-03T06:35:58.684Z,93.00
2018-02-03T06:38:26.286Z,93.00
2018-02-03T06:40:53.905Z,92.80
2018-02-03T06:43:21.707Z,92.70
2018-02-03T06:45:49.257Z,92.70
2018-02-03T06:48:16.868Z,92.50
2018-02-03T06:50:44.509Z,92.80
2018-02-03T06:53:12.100Z,92.60
2018-02-03T06:55:39.740Z,93.00
2018-02-03T06:58:08.110Z,92.30
2018-02-03T07:00:36.464Z,92.20
2018-02-03T07:03:04.225Z,92.20
2018-02-03T07:05:31.861Z,92.40
2018-02-03T07:07:59.602Z,92.10
2018-02-03T07:10:27.196Z,91.90
2018-02-03T07:12:55.557Z,91.30
2018-02-03T07:15:23.203Z,91.20
2018-02-03T07:17:50.860Z,91.30
2018-02-03T07:20:18.462Z,91.20
2018-02-03T07:22:46.061Z,90.70
2018-02-03T07:25:14.425Z,91.10
2018-02-03T07:27:42.017Z,91.10
2018-02-03T07:30:09.608Z,91.00
2018-02-03T07:32:37.226Z,90.90
2018-02-03T07:35:05.585Z,91.10
2018-02-03T07:37:33.165Z,91.10
2018-02-03T07:40:01.547Z,90.10
2018-02-03T07:42:29.135Z,90.10
2018-02-03T07:44:56.713Z,90.10
2018-02-03T07:47:24.307Z,90.10
2018-02-03T07:49:51.886Z,89.80
2018-02-03T07:52:20.261Z,89.80
2018-02-03T07:54:48.614Z,90.20
2018-02-03T07:57:16.213Z,90.20
2018-02-03T07:59:43.808Z,90.40
2018-02-03T08:02:11.414Z,90.30
2018-02-03T08:04:39.761Z,90.30
2018-02-03T08:07:07.345Z,90.30
2018-02-03T08:09:35.718Z,89.10
2018-02-03T08:12:03.338Z,89.10
2018-02-03T08:14:30.941Z,89.00
2018-02-03T08:16:59.349Z,89.40
2018-02-03T08:19:26.930Z,88.80
2018-02-03T08:21:54.535Z,88.20
2018-02-03T08:24:22.155Z,87.80
2018-02-03T08:26:49.731Z,88.80
2018-02-03T08:29:17.333Z,87.70
2018-02-03T08:31:45.772Z,88.40
2018-02-03T08:34:13.346Z,88.30
2018-02-03T08:36:40.984Z,88.70
2018-02-03T08:39:08.575Z,87.60
2018-02-03T08:41:36.172Z,87.70
2018-02-03T08:44:03.977Z,86.80
2018-02-03T08:46:31.563Z,88.20
2018-02-03T08:48:59.930Z,87.40
2018-02-03T08:51:27.515Z,87.80
2018-02-03T08:53:55.884Z,87.80
2018-02-03T08:56:24.308Z,87.20
2018-02-03T08:58:51.904Z,87.00
2018-02-03T09:01:19.530Z,86.00
2018-02-03T09:03:47.189Z,86.10
2018-02-03T09:06:14.763Z,86.10
2018-02-03T09:08:42.385Z,85.90
2018-02-03T09:11:10.819Z,85.30
2018-02-03T09:13:38.406Z,85.20
2018-02-03T09:16:06.016Z,85.40
2018-02-03T09:18:33.623Z,85.40
2018-02-03T09:21:01.220Z,85.90
2018-02-03T09:23:28.787Z,86.30
2018-02-03T09:25:56.416Z,84.80
2018-02-03T09:28:24.847Z,84.00
2018-02-03T09:30:52.450Z,84.00
2018-02-03T09:33:20.793Z,83.30
2018-02-03T09:35:48.405Z,83.30
2018-02-03T09:38:16.836Z,85.30
2018-02-03T09:40:44.433Z,85.20
2018-02-03T09:43:12.777Z,84.70
2018-02-03T09:45:40.413Z,84.70
2018-02-03T09:48:07.987Z,84.30
2018-02-03T09:50:35.585Z,83.60
2018-02-03T09:53:03.934Z,83.80
2018-02-03T09:55:31.528Z,83.30
2018-02-03T09:58:00.008Z,85.00
2018-02-03T10:00:28.386Z,82.90
2018-02-03T10:02:56.746Z,82.70
2018-02-03T10:05:24.325Z,82.60
2018-02-03T10:07:52.740Z,82.40
2018-02-03T10:10:20.344Z,82.40
2018-02-03T10:12:47.933Z,81.80
2018-02-03T10:15:16.298Z,81.80
2018-02-03T10:17:43.936Z,81.70
2018-02-03T10:20:11.505Z,82.30
2018-02-03T10:22:39.175Z,81.60
2018-02-03T10:25:06.711Z,81.40
2018-02-03T10:27:34.333Z,81.40
2018-02-03T10:30:02.030Z,81.80
2018-02-03T10:32:29.616Z,82.10
2018-02-03T10:34:57.191Z,81.10
2018-02-03T10:37:25.625Z,81.80
2018-02-03T10:39:54.082Z,81.40
2018-02-03T10:42:21.685Z,81.30
2018-02-03T10:44:49.287Z,81.70
2018-02-03T10:47:16.921Z,81.20
2018-02-03T10:49:44.517Z,80.90
2018-02-03T10:52:12.112Z,81.60
2018-02-03T10:54:39.790Z,82.70
2018-02-03T10:57:07.401Z,81.80
2018-02-03T10:59:34.984Z,81.10
2018-02-03T11:02:02.596Z,83.30
2018-02-03T11:04:30.945Z,80.60
2018-02-03T11:06:58.546Z,80.60
2018-02-03T11:09:26.120Z,80.60
2018-02-03T11:11:53.729Z,81.20
2018-02-03T11:14:21.306Z,83.10
2018-02-03T11:16:49.685Z,81.10
2018-02-03T11:19:18.033Z,79.80
2018-02-03T11:21:45.609Z,79.20
2018-02-03T11:24:13.213Z,79.00
2018-02-03T11:26:40.810Z,79.00
2018-02-03T11:29:08.398Z,78.90
2018-02-03T11:31:36.020Z,78.60
2018-02-03T11:34:03.620Z,79.40
2018-02-03T11:36:31.365Z,78.40
2018-02-03T11:38:59.115Z,78.80
2018-02-03T11:41:26.692Z,79.30
2018-02-03T11:43:54.284Z,78.80
2018-02-03T11:46:22.621Z,76.80
2018-02-03T11:48:50.220Z,76.70
2018-02-03T11:51:18.627Z,77.20
2018-02-03T11:53:46.214Z,77.20
2018-02-03T11:56:13.804Z,76.10
2018-02-03T11:58:41.414Z,76.60
2018-02-03T12:01:09.009Z,74.60
2018-02-03T12:03:36.616Z,76.60
2018-02-03T12:06:04.175Z,75.60
2018-02-03T12:08:31.792Z,74.50
2018-02-03T12:10:59.365Z,76.60
2018-02-03T12:13:26.955Z,75.90
2018-02-03T12:15:54.536Z,75.30
2018-02-03T12:18:22.114Z,73.60
2018-02-03T12:20:49.760Z,74.70
2018-02-03T12:23:17.342Z,74.30
2018-02-03T12:25:44.968Z,74.20
2018-02-03T12:28:12.597Z,74.10
2018-02-03T12:30:40.937Z,73.90
2018-02-03T12:33:09.312Z,71.70
2018-02-03T12:35:36.892Z,71.60
2018-02-03T12:38:04.573Z,70.70
2018-02-03T12:40:32.934Z,71.10
2018-02-03T12:43:00.533Z,71.00
2018-02-03T12:45:28.109Z,68.60
2018-02-03T12:47:55.713Z,69.10
2018-02-03T12:50:23.326Z,68.60
2018-02-03T12:52:50.933Z,67.80
2018-02-03T12:55:18.517Z,69.10
2018-02-03T12:57:46.901Z,68.30
2018-02-03T13:00:15.249Z,69.10
2018-02-03T13:02:42.861Z,68.90
2018-02-03T13:05:10.437Z,67.30
2018-02-03T13:07:38.040Z,67.80
2018-02-03T13:10:05.617Z,67.30
2018-02-03T13:12:33.976Z,66.70
2018-02-03T13:15:01.562Z,66.70
2018-02-03T13:17:29.905Z,69.00
2018-02-03T13:19:57.501Z,69.00
2018-02-03T13:22:25.836Z,68.70
2018-02-03T13:24:53.436Z,68.70
2018-02-03T13:27:21.803Z,68.60
2018-02-03T13:29:50.136Z,69.00
2018-02-03T13:32:17.737Z,69.00
2018-02-03T13:34:46.108Z,66.90
2018-02-03T13:37:13.711Z,66.90
2018-02-03T13:39:41.284Z,66.50
2018-02-03T13:42:09.327Z,66.50
2018-02-03T13:44:36.901Z,68.10
2018-02-03T13:47:04.550Z,68.40
2018-02-03T13:49:32.121Z,68.70
2018-02-03T13:51:59.732Z,68.60
2018-02-03T13:54:27.309Z,70.20
2018-02-03T13:56:55.925Z,70.90
2018-02-03T13:59:23.551Z,70.90
2018-02-03T14:01:51.888Z,70.50
2018-02-03T14:04:19.570Z,70.50
2018-02-03T14:06:47.161Z,70.20
2018-02-03T14:09:15.508Z,70.40
2018-02-03T14:11:43.144Z,70.40
2018-02-03T14:14:10.756Z,71.10
2018-02-03T14:16:39.097Z,71.40
2018-02-03T14:19:06.701Z,71.40
2018-02-03T14:21:35.045Z,72.50
2018-02-03T14:24:08.213Z,72.30
2018-02-03T14:26:35.807Z,71.90
2018-02-03T14:29:03.384Z,71.80
2018-02-03T14:31:31.752Z,72.70
2018-02-03T14:34:00.150Z,72.60
2018-02-03T14:36:27.755Z,72.60
2018-02-03T14:38:55.325Z,73.60
2018-02-03T14:41:22.908Z,73.90
2018-02-03T14:43:50.492Z,74.10
2018-02-03T14:46:18.843Z,73.90
2018-02-03T14:48:46.461Z,73.90
2018-02-03T14:51:14.073Z,74.30
2018-02-03T14:53:44.239Z,75.00
2018-02-03T14:56:12.998Z,75.00
2018-02-03T14:58:41.361Z,75.40
2018-02-03T15:01:09.720Z,75.60
2018-02-03T15:03:37.312Z,75.60
2018-02-03T15:06:05.672Z,76.80
2018-02-03T15:08:34.032Z,76.20
2018-02-03T15:11:01.601Z,76.00
2018-02-03T15:13:29.189Z,76.40
2018-02-03T15:15:57.617Z,76.70
2018-02-03T15:18:25.200Z,76.70
2018-02-03T15:20:52.800Z,77.60
2018-02-03T15:23:20.378Z,77.00
2018-02-03T15:25:48.001Z,76.90
2018-02-03T15:28:16.338Z,76.90
2018-02-03T15:30:43.973Z,76.90
2018-02-03T15:33:11.546Z,77.20
2018-02-03T15:35:39.149Z,77.40
2018-02-03T15:38:07.517Z,78.10
2018-02-03T15:40:35.141Z,78.10
2018-02-03T15:43:02.713Z,77.50
2018-02-03T15:45:31.153Z,76.90
2018-02-03T15:47:58.749Z,76.70
2018-02-03T15:50:26.324Z,77.10
2018-02-03T15:52:53.968Z,77.00
2018-02-03T15:55:21.537Z,77.00
2018-02-03T15:57:49.136Z,77.20
2018-02-03T16:00:17.481Z,77.40
2018-02-03T16:02:45.078Z,77.30
2018-02-03T16:05:13.421Z,78.00
2018-02-03T16:07:41.065Z,78.00
2018-02-03T16:10:09.448Z,77.80
2018-02-03T16:12:37.029Z,78.30
2018-02-03T16:15:04.662Z,79.70
2018-02-03T16:17:32.242Z,79.20
2018-02-03T16:19:59.857Z,79.10
2018-02-03T16:22:27.484Z,78.70
2018-02-03T16:24:55.090Z,78.50
2018-02-03T16:27:22.697Z,79.80
2018-02-03T16:29:50.297Z,80.50
2018-02-03T16:32:17.900Z,86.30
2018-02-03T16:34:45.485Z,88.70
2018-02-03T16:37:13.095Z,90.30
2018-02-03T16:39:40.682Z,90.60
2018-02-03T16:42:08.288Z,90.80
2018-02-03T16:44:36.628Z,92.30
2018-02-03T16:47:04.209Z,92.20
2018-02-03T16:49:32.593Z,92.30
2018-02-03T16:52:00.941Z,92.60
2018-02-03T16:54:28.549Z,92.50
2018-02-03T16:56:56.197Z,92.60
2018-02-03T16:59:24.601Z,92.10
2018-02-03T17:01:52.176Z,92.10
2018-02-03T17:04:19.825Z,92.10
2018-02-03T17:06:47.404Z,91.80
2018-02-03T17:09:15.026Z,91.70
2018-02-03T17:11:42.620Z,91.70
2018-02-03T17:14:10.236Z,91.30
2018-02-03T17:16:38.577Z,92.10
2018-02-03T17:19:06.219Z,92.10
2018-02-03T17:21:33.913Z,92.40
2018-02-03T17:24:01.506Z,92.10
2018-02-03T17:26:29.877Z,91.90
2018-02-03T17:28:58.217Z,92.00
2018-02-03T17:31:25.813Z,92.00
2018-02-03T17:33:54.176Z,92.50
2018-02-03T17:36:27.241Z,92.50
2018-02-03T17:39:00.387Z,92.30
2018-02-03T17:41:27.978Z,91.80
2018-02-03T17:43:55.571Z,92.20
2018-02-03T17:46:28.707Z,91.60
2018-02-03T17:48:56.343Z,91.90
2018-02-03T17:51:24.729Z,91.90
2018-02-03T17:53:52.318Z,91.90
2018-02-03T17:56:25.604Z,91.90
2018-02-03T17:58:53.193Z,91.70
2018-02-03T18:01:20.817Z,91.90
2018-02-03T18:03:48.402Z,92.00
2018-02-03T18:06:16.001Z,91.50
2018-02-03T18:08:43.601Z,91.70
2018-02-03T18:11:11.202Z,91.90
2018-02-03T18:13:38.819Z,91.70
2018-02-03T18:16:06.402Z,91.60
2018-02-03T18:18:34.041Z,91.50
2018-02-03T18:21:01.678Z,91.50
2018-02-03T18:23:30.049Z,91.20
2018-02-03T18:25:58.455Z,91.40
2018-02-03T18:28:26.179Z,91.40
2018-02-03T18:30:53.786Z,90.90
2018-02-03T18:33:21.414Z,91.00
2018-02-03T18:35:49.789Z,90.80
2018-02-03T18:38:18.243Z,91.10
2018-02-03T18:40:47.688Z,91.00
2018-02-03T18:43:16.059Z,91.30
2018-02-03T18:45:46.361Z,91.30
2018-02-03T18:48:14.044Z,91.30
2018-02-03T18:50:42.480Z,91.70
2018-02-03T18:53:10.076Z,91.70
2018-02-03T18:55:37.719Z,92.00
2018-02-03T18:58:05.328Z,92.20
2018-02-03T19:00:32.914Z,92.30
2018-02-03T19:03:00.644Z,92.20
2018-02-03T19:05:28.247Z,92.20
2018-02-03T19:07:55.857Z,92.00
2018-02-03T19:10:24.221Z,92.10
2018-02-03T19:12:51.819Z,92.10
2018-02-03T19:15:19.413Z,91.50
2018-02-03T19:17:47.029Z,92.00
2018-02-03T19:20:14.631Z,92.20
2018-02-03T19:22:43.011Z,91.80
2018-02-03T19:25:10.609Z,92.00
2018-02-03T19:27:38.997Z,92.50
2018-02-03T19:30:07.467Z,93.10
2018-02-03T19:32:35.854Z,92.90
2018-02-03T19:35:04.276Z,92.70
2018-02-03T19:37:31.952Z,92.60
2018-02-03T19:39:59.532Z,92.40
2018-02-03T19:42:27.133Z,92.30
2018-02-03T19:44:54.769Z,92.10
2018-02-03T19:47:23.141Z,91.80
2018-02-03T19:49:51.545Z,92.00
2018-02-03T19:52:19.145Z,92.00
2018-02-03T19:54:46.758Z,92.10
2018-02-03T19:57:15.233Z,92.00
2018-02-03T19:59:43.719Z,92.00
2018-02-03T20:02:12.085Z,92.00
2018-02-03T20:04:40.449Z,92.00
2018-02-03T20:07:08.045Z,92.00
2018-02-03T20:09:35.667Z,92.00
2018-02-03T20:12:04.038Z,92.60
2018-02-03T20:14:31.645Z,92.60
2018-02-03T20:16:59.277Z,92.70
2018-02-03T20:19:27.662Z,92.60
2018-02-03T20:21:56.013Z,92.50
2018-02-03T20:24:23.654Z,92.50
2018-02-03T20:26:51.429Z,92.20
2018-02-03T20:29:19.023Z,92.00
2018-02-03T20:31:47.402Z,92.10
2018-02-03T20:34:16.250Z,92.00
2018-02-03T20:36:43.906Z,91.90
2018-02-03T20:39:11.550Z,92.10
2018-02-03T20:41:39.444Z,92.00
2018-02-03T20:44:07.297Z,92.00
2018-02-03T20:46:35.121Z,92.00
2018-02-03T20:49:02.932Z,92.40
2018-02-03T20:51:30.531Z,92.20
2018-02-03T20:53:58.176Z,92.20
2018-02-03T20:56:25.792Z,92.30
2018-02-03T20:58:53.504Z,91.70
2018-02-03T21:01:21.109Z,91.80
2018-02-03T21:03:48.724Z,91.80
2018-02-03T21:06:16.332Z,91.90
2018-02-03T21:08:43.956Z,92.10
2018-02-03T21:11:11.624Z,92.00
2018-02-03T21:13:40.080Z,92.10
2018-02-03T21:16:07.681Z,92.30
2018-02-03T21:18:36.045Z,92.30
2018-02-03T21:21:05.121Z,92.10
2018-02-03T21:23:33.038Z,92.00
2018-02-03T21:26:00.678Z,92.20
2018-02-03T21:28:29.048Z,92.30
2018-02-03T21:30:57.609Z,92.30
2018-02-03T21:33:25.187Z,92.20
2018-02-03T21:35:52.786Z,92.10
2018-02-03T21:38:20.431Z,91.90
2018-02-03T21:40:48.878Z,91.80
2018-02-03T21:43:16.489Z,91.70
2018-02-03T21:45:44.112Z,91.60
2018-02-03T21:48:12.487Z,92.30
2018-02-03T21:50:40.879Z,91.80
2018-02-03T21:53:09.280Z,92.00
2018-02-03T21:55:36.869Z,92.00
2018-02-03T21:58:04.486Z,92.30
2018-02-03T22:00:32.858Z,91.80
2018-02-03T22:03:01.242Z,92.20
2018-02-03T22:05:28.858Z,92.20
2018-02-03T22:07:56.450Z,92.00
2018-02-03T22:10:24.818Z,91.60
2018-02-03T22:12:52.398Z,91.60
2018-02-03T22:15:20.778Z,91.60
2018-02-03T22:17:49.134Z,91.50
2018-02-03T22:20:16.749Z,91.50
2018-02-03T22:22:44.349Z,91.60
2018-02-03T22:25:11.933Z,91.90
2018-02-03T22:27:40.318Z,91.70
2018-02-03T22:30:08.021Z,91.60
2018-02-03T22:32:35.890Z,91.80
2018-02-03T22:35:03.481Z,91.70
2018-02-03T22:37:31.118Z,91.70
2018-02-03T22:39:58.733Z,91.70
2018-02-03T22:42:26.357Z,91.60
2018-02-03T22:44:53.962Z,91.60
2018-02-03T22:47:21.599Z,92.10
2018-02-03T22:49:49.975Z,92.00
2018-02-03T22:52:18.364Z,91.70
2018-02-03T22:54:46.719Z,91.90
2018-02-03T22:57:14.329Z,91.90
2018-02-03T22:59:41.924Z,92.20
2018-02-03T23:02:09.522Z,92.10
2018-02-03T23:04:37.877Z,91.90
2018-02-03T23:07:05.489Z,91.90
2018-02-03T23:09:33.112Z,92.00
2018-02-03T23:12:01.465Z,91.70
2018-02-03T23:14:29.091Z,91.70
2018-02-03T23:16:56.740Z,92.40
2018-02-03T23:19:24.368Z,91.80
2018-02-03T23:21:52.730Z,92.20
2018-02-03T23:24:20.328Z,92.20
2018-02-03T23:26:47.933Z,92.00
2018-02-03T23:29:16.318Z,91.90
2018-02-03T23:31:43.939Z,91.90
2018-02-03T23:34:11.570Z,91.50
2018-02-03T23:36:39.956Z,92.10
2018-02-03T23:39:08.314Z,92.10
2018-02-03T23:41:35.917Z,92.10
2018-02-03T23:44:03.610Z,92.40
2018-02-03T23:46:31.993Z,92.70
2018-02-03T23:48:59.585Z,92.70
2018-02-03T23:51:27.214Z,92.50
2018-02-03T23:53:54.789Z,92.70
2018-02-03T23:56:22.402Z,92.30
2018-02-03T23:58:49.993Z,92.30
